createdAt,value
2023-01-17T00:00:48.884Z,78.29
2023-01-17T00:01:50.516Z,78.64
2023-01-17T00:02:52.324Z,77.91
2023-01-17T00:04:12.634Z,78.09
2023-01-17T00:05:33.019Z,78.29
2023-01-17T00:06:53.323Z,77.94
2023-01-17T00:08:13.302Z,78.80
2023-01-17T00:09:33.780Z,78.33
2023-01-17T00:10:40.447Z,79.83
2023-01-17T00:11:42.243Z,78.99
2023-01-17T00:12:49.339Z,78.87
2023-01-17T00:13:51.096Z,78.82
2023-01-17T00:14:54.669Z,78.50
2023-01-17T00:15:56.316Z,80.26
2023-01-17T00:16:58.081Z,79.19
2023-01-17T00:17:59.854Z,79.05
2023-01-17T00:19:20.140Z,78.87
2023-01-17T00:20:43.075Z,78.43
2023-01-17T00:22:03.462Z,78.84
2023-01-17T00:23:32.998Z,78.98
2023-01-17T00:24:53.260Z,79.16
2023-01-17T00:26:04.792Z,80.77
2023-01-17T00:27:12.430Z,80.11
2023-01-17T00:28:14.236Z,79.65
2023-01-17T00:29:15.818Z,79.53
2023-01-17T00:30:17.457Z,79.64
2023-01-17T00:31:19.082Z,80.26
2023-01-17T00:32:20.674Z,80.03
2023-01-17T00:33:22.887Z,80.66
2023-01-17T00:34:24.473Z,80.83
2023-01-17T00:35:27.436Z,80.71
2023-01-17T00:36:28.975Z,81.10
2023-01-17T00:37:30.596Z,79.28
2023-01-17T00:38:33.806Z,80.15
2023-01-17T00:39:35.358Z,79.50
2023-01-17T00:40:38.710Z,79.55
2023-01-17T00:41:40.270Z,79.06
2023-01-17T00:42:41.794Z,79.62
2023-01-17T00:44:02.166Z,79.20
2023-01-17T00:45:23.357Z,79.26
2023-01-17T00:46:43.712Z,79.98
2023-01-17T00:48:04.981Z,79.88
2023-01-17T00:49:25.335Z,79.49
2023-01-17T00:50:45.481Z,81.00
2023-01-17T00:52:05.670Z,80.54
2023-01-17T00:53:25.868Z,79.82
2023-01-17T00:54:46.096Z,79.36
2023-01-17T00:56:06.427Z,79.93
2023-01-17T00:57:27.217Z,80.86
2023-01-17T00:58:47.661Z,79.81
2023-01-17T01:00:07.968Z,80.57
2023-01-17T01:01:28.420Z,79.79
2023-01-17T01:02:49.019Z,80.60
2023-01-17T01:04:09.287Z,81.18
2023-01-17T01:05:30.069Z,79.87
2023-01-17T01:06:50.256Z,80.00
2023-01-17T01:08:10.589Z,79.54
2023-01-17T01:09:30.768Z,79.72
2023-01-17T01:10:52.128Z,79.94
2023-01-17T01:12:12.500Z,79.09
2023-01-17T01:13:32.854Z,80.00
2023-01-17T01:14:53.022Z,80.23
2023-01-17T01:16:12.966Z,79.80
2023-01-17T01:17:33.055Z,79.28
2023-01-17T01:18:53.221Z,79.47
2023-01-17T01:20:13.576Z,78.84
2023-01-17T01:21:33.650Z,79.21
2023-01-17T01:22:53.715Z,78.04
2023-01-17T01:24:14.022Z,78.10
2023-01-17T01:25:35.717Z,78.04
2023-01-17T01:26:55.936Z,76.96
2023-01-17T01:28:28.990Z,76.77
2023-01-17T01:29:48.990Z,78.14
2023-01-17T01:31:09.264Z,78.91
2023-01-17T01:32:29.657Z,77.46
2023-01-17T01:33:31.282Z,78.04
2023-01-17T01:34:33.030Z,77.91
2023-01-17T01:35:36.601Z,77.38
2023-01-17T01:36:38.307Z,77.82
2023-01-17T01:37:39.975Z,77.88
2023-01-17T01:38:41.583Z,78.88
2023-01-17T01:39:43.239Z,79.30
2023-01-17T01:40:50.432Z,77.96
2023-01-17T01:41:52.156Z,80.59
2023-01-17T01:42:55.970Z,79.40
2023-01-17T01:43:57.608Z,80.30
2023-01-17T01:44:59.510Z,80.55
2023-01-17T01:46:01.319Z,79.30
2023-01-17T01:47:03.018Z,78.22
2023-01-17T01:48:22.383Z,81.03
2023-01-17T01:49:25.845Z,79.18
2023-01-17T01:50:28.856Z,79.41
2023-01-17T01:51:36.744Z,79.36
2023-01-17T01:52:43.136Z,79.54
2023-01-17T01:53:48.054Z,80.53
2023-01-17T01:54:54.045Z,80.58
2023-01-17T01:55:55.820Z,79.92
2023-01-17T01:56:59.070Z,81.15
2023-01-17T01:58:04.889Z,79.95
2023-01-17T01:59:08.844Z,80.25
2023-01-17T02:00:17.526Z,80.08
2023-01-17T02:01:19.553Z,80.80
2023-01-17T02:02:21.386Z,81.63
2023-01-17T02:03:27.316Z,80.83
2023-01-17T02:04:28.971Z,82.79
2023-01-17T02:05:31.064Z,81.41
2023-01-17T02:06:35.680Z,84.74
2023-01-17T02:07:42.545Z,81.57
2023-01-17T02:08:44.175Z,81.69
2023-01-17T02:09:45.789Z,83.57
2023-01-17T02:10:47.661Z,82.25
2023-01-17T02:11:49.783Z,82.10
2023-01-17T02:12:52.913Z,81.83
2023-01-17T02:13:54.686Z,81.95
2023-01-17T02:14:56.618Z,81.28
2023-01-17T02:16:16.132Z,80.96
2023-01-17T02:17:23.657Z,81.84
2023-01-17T02:18:34.186Z,82.63
2023-01-17T02:20:11.278Z,82.25
2023-01-17T02:21:24.793Z,83.52
2023-01-17T02:22:41.453Z,81.49
2023-01-17T02:23:54.896Z,82.81
2023-01-17T02:25:21.541Z,82.06
2023-01-17T02:26:35.319Z,82.22
2023-01-17T02:27:49.026Z,81.58
2023-01-17T02:29:22.842Z,84.38
2023-01-17T02:30:39.887Z,81.80
2023-01-17T02:31:55.407Z,82.81
2023-01-17T02:33:11.745Z,83.65
2023-01-17T02:34:19.331Z,83.98
2023-01-17T02:35:34.155Z,84.15
2023-01-17T02:36:41.962Z,84.13
2023-01-17T02:38:23.021Z,82.45
2023-01-17T02:39:32.924Z,83.14
2023-01-17T02:40:48.452Z,83.24
2023-01-17T02:41:54.178Z,82.80
2023-01-17T02:43:05.469Z,84.69
2023-01-17T02:44:11.071Z,83.89
2023-01-17T02:45:19.437Z,83.42
2023-01-17T02:46:21.018Z,83.41
2023-01-17T02:47:31.731Z,82.45
2023-01-17T02:48:35.835Z,83.49
2023-01-17T02:49:37.523Z,82.28
2023-01-17T02:50:58.809Z,85.08
2023-01-17T02:52:18.391Z,85.82
2023-01-17T02:53:42.306Z,84.49
2023-01-17T02:55:12.910Z,86.19
2023-01-17T02:56:38.895Z,83.94
2023-01-17T02:58:01.973Z,84.71
2023-01-17T02:59:15.752Z,84.01
2023-01-17T03:00:50.267Z,83.29
2023-01-17T03:02:04.441Z,82.41
2023-01-17T03:03:27.312Z,83.02
2023-01-17T03:04:42.298Z,82.65
2023-01-17T03:05:47.328Z,84.19
2023-01-17T03:06:53.732Z,83.26
2023-01-17T03:07:56.239Z,82.79
2023-01-17T03:08:57.939Z,81.69
2023-01-17T03:10:02.239Z,83.75
2023-01-17T03:11:03.866Z,82.56
2023-01-17T03:12:05.954Z,83.06
2023-01-17T03:13:07.587Z,83.79
2023-01-17T03:14:09.241Z,82.38
2023-01-17T03:15:12.966Z,81.54
2023-01-17T03:16:21.154Z,82.52
2023-01-17T03:17:24.258Z,83.08
2023-01-17T03:18:25.999Z,83.05
2023-01-17T03:19:27.641Z,82.78
2023-01-17T03:20:29.284Z,82.63
2023-01-17T03:21:30.984Z,83.90
2023-01-17T03:22:32.583Z,84.83
2023-01-17T03:23:34.179Z,82.69
2023-01-17T03:24:35.739Z,83.58
2023-01-17T03:25:37.339Z,84.65
2023-01-17T03:26:39.101Z,83.33
2023-01-17T03:27:40.696Z,84.05
2023-01-17T03:28:42.403Z,86.13
2023-01-17T03:29:44.002Z,86.55
2023-01-17T03:30:45.674Z,86.16
2023-01-17T03:31:47.260Z,85.90
2023-01-17T03:32:49.434Z,85.56
2023-01-17T03:33:51.123Z,86.73
2023-01-17T03:34:52.782Z,86.58
2023-01-17T03:35:57.953Z,87.46
2023-01-17T03:36:59.586Z,88.83
2023-01-17T03:38:01.142Z,85.92
2023-01-17T03:39:02.987Z,86.34
2023-01-17T03:40:05.063Z,85.27
2023-01-17T03:41:07.151Z,87.45
2023-01-17T03:42:08.746Z,87.25
2023-01-17T03:43:10.363Z,86.64
2023-01-17T03:44:11.991Z,86.62
2023-01-17T03:45:13.654Z,87.22
2023-01-17T03:46:21.126Z,86.84
2023-01-17T03:47:22.784Z,86.88
2023-01-17T03:48:24.436Z,88.67
2023-01-17T03:49:26.525Z,86.77
2023-01-17T03:50:28.184Z,86.66
2023-01-17T03:51:29.769Z,86.01
2023-01-17T03:52:31.402Z,85.84
2023-01-17T03:53:32.980Z,85.43
2023-01-17T03:54:34.668Z,85.64
2023-01-17T03:55:36.254Z,86.56
2023-01-17T03:56:37.875Z,85.53
2023-01-17T03:57:39.467Z,85.34
2023-01-17T03:58:41.266Z,85.44
2023-01-17T03:59:42.887Z,86.26
2023-01-17T04:00:44.469Z,85.77
2023-01-17T04:01:46.202Z,85.67
2023-01-17T04:02:47.928Z,86.09
2023-01-17T04:03:49.528Z,85.89
2023-01-17T04:04:51.344Z,87.45
2023-01-17T04:05:52.935Z,87.09
2023-01-17T04:06:54.670Z,86.21
2023-01-17T04:07:56.284Z,84.74
2023-01-17T04:08:57.882Z,86.18
2023-01-17T04:09:59.508Z,85.40
2023-01-17T04:11:01.112Z,87.40
2023-01-17T04:12:03.120Z,87.71
2023-01-17T04:13:04.804Z,84.22
2023-01-17T04:14:06.414Z,87.11
2023-01-17T04:15:08.236Z,86.51
2023-01-17T04:16:14.450Z,85.89
2023-01-17T04:17:17.522Z,86.34
2023-01-17T04:18:20.582Z,84.48
2023-01-17T04:19:22.344Z,86.02
2023-01-17T04:20:32.503Z,86.88
2023-01-17T04:21:34.051Z,84.35
2023-01-17T04:22:35.657Z,85.32
2023-01-17T04:23:37.364Z,85.77
2023-01-17T04:24:39.007Z,86.30
2023-01-17T04:25:40.741Z,86.34
2023-01-17T04:26:42.363Z,84.88
2023-01-17T04:27:44.013Z,85.53
2023-01-17T04:28:45.609Z,87.05
2023-01-17T04:29:47.215Z,85.40
2023-01-17T04:30:48.902Z,87.42
2023-01-17T04:31:50.508Z,86.10
2023-01-17T04:32:52.364Z,86.48
2023-01-17T04:33:53.997Z,86.09
2023-01-17T04:34:55.558Z,85.88
2023-01-17T04:35:57.220Z,87.04
2023-01-17T04:36:58.908Z,87.82
2023-01-17T04:38:00.838Z,90.34
2023-01-17T04:39:02.540Z,86.31
2023-01-17T04:40:05.353Z,87.67
2023-01-17T04:41:06.971Z,89.05
2023-01-17T04:42:08.543Z,88.50
2023-01-17T04:43:10.195Z,88.63
2023-01-17T04:44:11.811Z,87.68
2023-01-17T04:45:14.031Z,85.64
2023-01-17T04:46:15.696Z,85.38
2023-01-17T04:47:17.364Z,86.80
2023-01-17T04:48:18.962Z,86.49
2023-01-17T04:49:20.536Z,85.98
2023-01-17T04:50:22.171Z,86.58
2023-01-17T04:51:23.819Z,87.97
2023-01-17T04:52:25.561Z,88.60
2023-01-17T04:53:27.281Z,86.30
2023-01-17T04:54:28.924Z,86.00
2023-01-17T04:55:31.177Z,88.75
2023-01-17T04:56:32.761Z,86.53
2023-01-17T04:57:34.418Z,87.58
2023-01-17T04:58:35.994Z,87.12
2023-01-17T04:59:37.565Z,88.44
2023-01-17T05:00:39.048Z,88.64
2023-01-17T05:01:40.703Z,87.08
2023-01-17T05:02:42.322Z,86.37
2023-01-17T05:03:46.929Z,86.93
2023-01-17T05:04:48.531Z,88.56
2023-01-17T05:05:50.104Z,87.61
2023-01-17T05:06:51.747Z,88.26
2023-01-17T05:07:57.740Z,86.92
2023-01-17T05:08:59.536Z,86.56
2023-01-17T05:10:01.167Z,87.97
2023-01-17T05:11:02.791Z,86.72
2023-01-17T05:12:04.618Z,88.56
2023-01-17T05:13:06.335Z,88.07
2023-01-17T05:14:09.165Z,87.46
2023-01-17T05:15:10.910Z,88.91
2023-01-17T05:16:12.670Z,88.89
2023-01-17T05:17:14.343Z,88.28
2023-01-17T05:18:17.245Z,88.40
2023-01-17T05:19:20.926Z,87.71
2023-01-17T05:20:24.040Z,88.38
2023-01-17T05:21:25.719Z,86.06
2023-01-17T05:22:27.302Z,87.54
2023-01-17T05:23:28.878Z,89.29
2023-01-17T05:24:31.319Z,88.95
2023-01-17T05:25:33.238Z,90.24
2023-01-17T05:26:34.914Z,88.26
2023-01-17T05:27:37.229Z,87.69
2023-01-17T05:28:38.840Z,86.56
2023-01-17T05:29:40.949Z,87.41
2023-01-17T05:30:42.660Z,87.07
2023-01-17T05:31:44.995Z,87.26
2023-01-17T05:32:51.425Z,88.28
2023-01-17T05:33:53.076Z,86.15
2023-01-17T05:34:54.857Z,88.07
2023-01-17T05:35:56.866Z,90.07
2023-01-17T05:36:58.715Z,86.89
2023-01-17T05:38:00.683Z,87.68
2023-01-17T05:39:02.350Z,88.08
2023-01-17T05:40:06.152Z,87.59
2023-01-17T05:41:07.716Z,87.25
2023-01-17T05:42:09.324Z,87.77
2023-01-17T05:43:10.900Z,87.33
2023-01-17T05:44:12.537Z,87.63
2023-01-17T05:45:16.956Z,87.40
2023-01-17T05:46:18.625Z,88.15
2023-01-17T05:47:20.256Z,88.82
2023-01-17T05:48:21.830Z,87.82
2023-01-17T05:49:23.435Z,87.24
2023-01-17T05:50:30.003Z,88.31
2023-01-17T05:51:31.631Z,88.16
2023-01-17T05:52:33.258Z,88.92
2023-01-17T05:53:34.897Z,88.93
2023-01-17T05:54:36.467Z,88.06
2023-01-17T05:55:38.901Z,88.85
2023-01-17T05:56:40.549Z,88.56
2023-01-17T05:57:42.151Z,89.79
2023-01-17T05:58:43.761Z,88.81
2023-01-17T05:59:45.316Z,90.02
2023-01-17T06:00:47.585Z,87.81
2023-01-17T06:01:49.285Z,88.75
2023-01-17T06:02:53.637Z,93.15
2023-01-17T06:03:55.307Z,89.93
2023-01-17T06:04:56.956Z,88.27
2023-01-17T06:05:58.524Z,87.94
2023-01-17T06:07:00.152Z,88.07
2023-01-17T06:08:01.698Z,88.77
2023-01-17T06:09:03.331Z,88.58
2023-01-17T06:10:05.659Z,88.42
2023-01-17T06:11:07.347Z,89.46
2023-01-17T06:12:08.988Z,88.94
2023-01-17T06:13:15.252Z,89.57
2023-01-17T06:14:16.909Z,88.14
2023-01-17T06:15:18.689Z,89.61
2023-01-17T06:16:20.384Z,91.25
2023-01-17T06:17:22.021Z,91.88
2023-01-17T06:18:23.579Z,89.41
2023-01-17T06:19:25.203Z,91.18
2023-01-17T06:20:27.345Z,89.25
2023-01-17T06:21:29.730Z,89.30
2023-01-17T06:22:31.370Z,89.08
2023-01-17T06:23:32.970Z,89.31
2023-01-17T06:24:34.649Z,89.69
2023-01-17T06:25:43.832Z,88.59
2023-01-17T06:26:45.411Z,90.41
2023-01-17T06:27:47.056Z,90.01
2023-01-17T06:28:48.720Z,88.18
2023-01-17T06:29:50.349Z,89.20
2023-01-17T06:30:51.980Z,90.03
2023-01-17T06:31:53.586Z,89.77
2023-01-17T06:32:55.638Z,89.42
2023-01-17T06:33:57.231Z,90.37
2023-01-17T06:34:58.789Z,88.76
2023-01-17T06:36:00.403Z,89.12
2023-01-17T06:37:01.994Z,89.55
2023-01-17T06:38:03.955Z,89.81
2023-01-17T06:39:05.617Z,90.39
2023-01-17T06:40:08.027Z,89.57
2023-01-17T06:41:09.732Z,89.46
2023-01-17T06:42:11.307Z,89.25
2023-01-17T06:43:13.124Z,89.51
2023-01-17T06:44:14.743Z,89.12
2023-01-17T06:45:17.743Z,89.56
2023-01-17T06:46:19.546Z,89.68
2023-01-17T06:47:21.167Z,90.37
2023-01-17T06:48:22.823Z,89.95
2023-01-17T06:49:24.388Z,89.55
2023-01-17T06:50:26.109Z,89.51
2023-01-17T06:51:27.929Z,88.74
2023-01-17T06:52:29.484Z,89.86
2023-01-17T06:53:31.113Z,89.30
2023-01-17T06:54:32.725Z,88.99
2023-01-17T06:55:35.215Z,92.03
2023-01-17T06:56:36.954Z,88.58
2023-01-17T06:57:38.557Z,89.17
2023-01-17T06:58:40.292Z,89.83
2023-01-17T06:59:41.872Z,88.89
2023-01-17T07:00:44.618Z,88.88
2023-01-17T07:01:46.318Z,90.82
2023-01-17T07:02:51.443Z,89.19
2023-01-17T07:03:53.178Z,88.74
2023-01-17T07:04:54.797Z,91.31
2023-01-17T07:05:56.397Z,94.54
2023-01-17T07:06:58.003Z,90.89
2023-01-17T07:07:59.680Z,90.90
2023-01-17T07:09:01.282Z,89.20
2023-01-17T07:10:03.571Z,89.11
2023-01-17T07:11:07.872Z,89.41
2023-01-17T07:12:09.696Z,89.22
2023-01-17T07:13:12.182Z,87.74
2023-01-17T07:14:14.536Z,88.49
2023-01-17T07:15:17.406Z,87.79
2023-01-17T07:16:19.046Z,88.77
2023-01-17T07:17:20.624Z,88.60
2023-01-17T07:18:25.122Z,87.45
2023-01-17T07:19:26.708Z,86.58
2023-01-17T07:20:28.346Z,89.46
2023-01-17T07:21:29.923Z,90.96
2023-01-17T07:22:31.505Z,91.81
2023-01-17T07:23:33.089Z,90.29
2023-01-17T07:24:36.379Z,87.79
2023-01-17T07:25:38.010Z,90.56
2023-01-17T07:26:40.238Z,89.44
2023-01-17T07:27:41.793Z,88.61
2023-01-17T07:28:43.660Z,90.06
2023-01-17T07:29:45.251Z,90.49
2023-01-17T07:30:46.979Z,91.70
2023-01-17T07:31:48.792Z,90.48
2023-01-17T07:32:52.277Z,90.20
2023-01-17T07:33:53.925Z,91.27
2023-01-17T07:34:57.621Z,90.75
2023-01-17T07:36:03.038Z,91.89
2023-01-17T07:37:04.618Z,88.88
2023-01-17T07:38:11.363Z,87.14
2023-01-17T07:39:13.003Z,89.85
2023-01-17T07:40:15.542Z,89.18
2023-01-17T07:41:17.165Z,89.04
2023-01-17T07:42:18.778Z,91.45
2023-01-17T07:43:20.377Z,89.37
2023-01-17T07:44:22.726Z,88.04
2023-01-17T07:45:24.360Z,88.21
2023-01-17T07:46:26.021Z,86.93
2023-01-17T07:47:27.741Z,85.54
2023-01-17T07:48:30.818Z,82.91
2023-01-17T07:49:32.422Z,81.13
2023-01-17T07:50:34.164Z,81.21
2023-01-17T07:51:35.804Z,77.92
2023-01-17T07:52:37.419Z,80.46
2023-01-17T07:53:39.030Z,79.45
2023-01-17T07:54:41.217Z,80.73
2023-01-17T07:55:42.817Z,76.60
2023-01-17T07:56:47.095Z,77.35
2023-01-17T07:57:50.557Z,75.26
2023-01-17T07:58:52.149Z,74.03
2023-01-17T07:59:53.816Z,74.08
2023-01-17T08:01:04.598Z,73.96
2023-01-17T08:02:06.379Z,72.08
2023-01-17T08:03:12.084Z,73.45
2023-01-17T08:04:14.224Z,72.15
2023-01-17T08:05:16.639Z,70.47
2023-01-17T08:06:24.112Z,73.67
2023-01-17T08:07:25.683Z,72.47
2023-01-17T08:08:28.127Z,73.47
2023-01-17T08:09:29.740Z,74.80
2023-01-17T08:10:31.354Z,76.16
2023-01-17T08:11:32.896Z,75.82
2023-01-17T08:12:36.003Z,76.14
2023-01-17T08:13:37.639Z,76.13
2023-01-17T08:14:39.242Z,75.05
2023-01-17T08:15:41.101Z,79.09
2023-01-17T08:16:42.837Z,78.97
2023-01-17T08:17:54.128Z,77.96
2023-01-17T08:18:56.197Z,81.35
2023-01-17T08:19:57.744Z,79.56
2023-01-17T08:20:59.383Z,80.91
2023-01-17T08:22:00.981Z,79.72
2023-01-17T08:23:02.587Z,79.78
2023-01-17T08:24:04.475Z,80.47
2023-01-17T08:25:06.332Z,80.49
2023-01-17T08:26:07.923Z,81.53
2023-01-17T08:27:10.026Z,81.42
2023-01-17T08:28:12.233Z,82.46
2023-01-17T08:29:14.018Z,83.21
2023-01-17T08:30:15.886Z,82.94
2023-01-17T08:31:17.792Z,83.86
2023-01-17T08:32:21.328Z,84.35
2023-01-17T08:33:22.955Z,83.06
2023-01-17T08:34:24.567Z,83.26
2023-01-17T08:35:27.785Z,81.86
2023-01-17T08:36:31.284Z,83.52
2023-01-17T08:37:33.194Z,82.83
2023-01-17T08:38:34.815Z,83.72
2023-01-17T08:39:36.474Z,82.61
2023-01-17T08:40:38.224Z,82.43
2023-01-17T08:41:40.011Z,82.15
2023-01-17T08:42:41.701Z,84.61
2023-01-17T08:43:43.251Z,80.35
2023-01-17T08:44:44.776Z,79.66
2023-01-17T08:45:48.210Z,84.93
2023-01-17T08:46:49.998Z,78.24
2023-01-17T08:47:52.017Z,78.52
2023-01-17T08:48:58.972Z,80.65
2023-01-17T08:50:01.048Z,83.30
2023-01-17T08:51:03.147Z,79.98
2023-01-17T08:52:05.442Z,85.38
2023-01-17T08:53:07.062Z,84.10
2023-01-17T08:54:12.824Z,81.00
2023-01-17T08:55:14.815Z,82.16
2023-01-17T08:56:16.462Z,82.35
2023-01-17T08:57:18.105Z,80.60
2023-01-17T08:58:19.761Z,81.50
2023-01-17T08:59:21.727Z,72.39
2023-01-17T09:00:23.298Z,76.82
2023-01-17T09:01:25.061Z,76.89
2023-01-17T09:02:26.970Z,75.09
2023-01-17T09:03:28.879Z,80.21
2023-01-17T09:04:30.550Z,80.00
2023-01-17T09:05:32.207Z,79.99
2023-01-17T09:06:37.008Z,81.47
2023-01-17T09:07:38.640Z,78.37
2023-01-17T09:08:40.712Z,77.65
2023-01-17T09:09:42.375Z,68.83
2023-01-17T09:10:43.984Z,65.06
2023-01-17T09:11:45.724Z,69.75
2023-01-17T09:12:47.353Z,68.19
2023-01-17T09:13:49.007Z,66.32
2023-01-17T09:14:50.648Z,63.61
2023-01-17T09:15:56.575Z,66.07
2023-01-17T09:16:58.362Z,68.57
2023-01-17T09:18:01.338Z,71.46
2023-01-17T09:19:02.967Z,65.72
2023-01-17T09:20:04.867Z,64.00
2023-01-17T09:21:14.949Z,61.69
2023-01-17T09:22:16.524Z,61.53
2023-01-17T09:23:18.123Z,64.67
2023-01-17T09:24:20.079Z,63.44
2023-01-17T09:25:22.298Z,61.67
2023-01-17T09:26:29.381Z,66.42
2023-01-17T09:27:31.004Z,65.09
2023-01-17T09:28:40.915Z,63.52
2023-01-17T09:29:42.633Z,63.23
2023-01-17T09:30:44.302Z,62.49
2023-01-17T09:31:48.118Z,62.84
2023-01-17T09:32:54.038Z,61.72
2023-01-17T09:33:56.986Z,60.40
2023-01-17T09:35:01.041Z,59.58
2023-01-17T09:36:04.462Z,59.41
2023-01-17T09:37:07.585Z,57.33
2023-01-17T09:38:09.473Z,57.98
2023-01-17T09:39:11.593Z,57.23
2023-01-17T09:40:21.100Z,59.03
2023-01-17T09:41:37.553Z,55.94
2023-01-17T09:42:40.338Z,56.47
2023-01-17T09:43:47.118Z,55.47
2023-01-17T09:44:53.490Z,54.79
2023-01-17T09:45:55.183Z,55.26
2023-01-17T09:47:02.008Z,55.58
2023-01-17T09:48:07.913Z,57.25
2023-01-17T09:49:19.383Z,55.89
2023-01-17T09:50:45.964Z,55.71
2023-01-17T09:51:47.684Z,55.91
2023-01-17T09:52:49.400Z,57.46
2023-01-17T09:53:52.782Z,58.23
2023-01-17T09:54:54.407Z,58.58
2023-01-17T09:56:04.829Z,58.56
2023-01-17T09:57:12.234Z,59.00
2023-01-17T09:58:24.061Z,57.39
2023-01-17T09:59:45.615Z,57.63
2023-01-17T10:01:09.105Z,57.38
2023-01-17T10:02:26.713Z,56.76
2023-01-17T10:03:43.693Z,57.58
2023-01-17T10:05:04.099Z,56.79
2023-01-17T10:06:11.704Z,55.58
2023-01-17T10:07:43.966Z,55.40
2023-01-17T10:09:18.148Z,53.82
2023-01-17T10:10:34.823Z,54.50
2023-01-17T10:11:52.104Z,54.46
2023-01-17T10:12:58.431Z,53.09
2023-01-17T10:14:11.311Z,53.04
2023-01-17T10:15:15.661Z,53.93
2023-01-17T10:16:36.790Z,53.94
2023-01-17T10:18:04.958Z,53.39
2023-01-17T10:19:56.034Z,52.65
2023-01-17T10:21:33.739Z,51.94
2023-01-17T10:22:38.151Z,51.68
2023-01-17T10:23:54.867Z,51.68
2023-01-17T10:25:28.898Z,52.90
2023-01-17T10:26:31.686Z,51.74
2023-01-17T10:27:57.544Z,53.02
2023-01-17T10:29:04.925Z,55.33
2023-01-17T10:30:34.512Z,54.24
2023-01-17T10:31:41.669Z,54.43
2023-01-17T10:32:48.346Z,54.96
2023-01-17T10:33:55.570Z,53.89
2023-01-17T10:35:02.193Z,57.02
2023-01-17T10:36:10.147Z,54.08
2023-01-17T10:37:47.002Z,53.58
2023-01-17T10:39:13.943Z,53.45
2023-01-17T10:40:50.161Z,59.19
2023-01-17T10:41:55.981Z,54.58
2023-01-17T10:43:15.560Z,55.26
2023-01-17T10:44:23.445Z,56.17
2023-01-17T10:45:28.749Z,57.49
2023-01-17T10:46:41.610Z,57.73
2023-01-17T10:47:48.268Z,59.47
2023-01-17T10:48:51.850Z,57.42
2023-01-17T10:49:57.575Z,57.09
2023-01-17T10:51:35.610Z,56.81
2023-01-17T10:52:48.155Z,57.97
2023-01-17T10:54:11.481Z,59.57
2023-01-17T10:55:32.015Z,57.58
2023-01-17T10:56:34.624Z,59.29
2023-01-17T10:57:47.502Z,56.92
2023-01-17T10:58:50.317Z,57.34
2023-01-17T10:59:52.397Z,55.88
2023-01-17T11:01:19.887Z,55.57
2023-01-17T11:02:25.675Z,54.35
2023-01-17T11:03:28.578Z,55.15
2023-01-17T11:04:41.535Z,54.41
2023-01-17T11:05:43.753Z,53.93
2023-01-17T11:06:57.914Z,53.65
2023-01-17T11:08:04.588Z,54.38
2023-01-17T11:09:10.705Z,54.02
2023-01-17T11:10:37.959Z,54.20
2023-01-17T11:11:48.932Z,53.30
2023-01-17T11:12:50.553Z,53.65
2023-01-17T11:13:53.629Z,54.37
2023-01-17T11:15:01.137Z,54.73
2023-01-17T11:16:10.951Z,57.08
2023-01-17T11:17:13.582Z,56.48
2023-01-17T11:18:16.050Z,58.06
2023-01-17T11:19:26.654Z,57.57
2023-01-17T11:20:34.532Z,62.41
2023-01-17T11:21:38.122Z,58.37
2023-01-17T11:22:39.765Z,57.49
2023-01-17T11:23:43.934Z,58.84
2023-01-17T11:24:49.109Z,58.62
2023-01-17T11:25:58.002Z,59.40
2023-01-17T11:26:59.752Z,59.42
2023-01-17T11:28:20.571Z,58.47
2023-01-17T11:29:37.272Z,58.08
2023-01-17T11:30:51.080Z,58.73
2023-01-17T11:31:53.631Z,59.58
2023-01-17T11:33:06.223Z,58.22
2023-01-17T11:34:19.271Z,58.07
2023-01-17T11:35:25.428Z,58.27
2023-01-17T11:36:30.166Z,59.19
2023-01-17T11:37:31.889Z,57.24
2023-01-17T11:38:33.500Z,57.58
2023-01-17T11:39:35.193Z,57.46
2023-01-17T11:40:40.038Z,58.39
2023-01-17T11:41:41.955Z,56.54
2023-01-17T11:42:43.592Z,59.23
2023-01-17T11:43:53.893Z,57.70
2023-01-17T11:44:55.723Z,59.42
2023-01-17T11:46:15.237Z,58.15
2023-01-17T11:47:19.246Z,57.91
2023-01-17T11:48:23.831Z,58.38
2023-01-17T11:49:26.160Z,58.47
2023-01-17T11:50:28.024Z,57.83
2023-01-17T11:51:33.956Z,58.59
2023-01-17T11:52:39.112Z,59.01
2023-01-17T11:53:47.052Z,59.72
2023-01-17T11:54:49.495Z,59.72
2023-01-17T11:55:57.445Z,58.89
2023-01-17T11:57:01.988Z,59.88
2023-01-17T11:58:03.632Z,59.27
2023-01-17T11:59:21.998Z,58.97
2023-01-17T12:00:45.999Z,60.10
2023-01-17T12:02:25.158Z,59.69
2023-01-17T12:03:45.512Z,59.42
2023-01-17T12:05:08.820Z,57.53
2023-01-17T12:06:17.947Z,56.12
2023-01-17T12:07:28.460Z,57.17
2023-01-17T12:08:56.085Z,56.79
2023-01-17T12:10:08.296Z,57.48
2023-01-17T12:11:22.105Z,58.11
2023-01-17T12:13:07.366Z,58.50
2023-01-17T12:14:26.631Z,58.57
2023-01-17T12:15:34.584Z,57.92
2023-01-17T12:16:54.396Z,57.08
2023-01-17T12:18:06.913Z,57.93
2023-01-17T12:19:26.968Z,57.77
2023-01-17T12:20:44.515Z,57.93
2023-01-17T12:22:07.580Z,60.59
2023-01-17T12:23:42.958Z,57.80
2023-01-17T12:24:50.426Z,56.78
2023-01-17T12:26:00.942Z,59.61
2023-01-17T12:27:16.079Z,59.07
2023-01-17T12:28:44.658Z,58.14
2023-01-17T12:30:06.459Z,58.95
2023-01-17T12:31:14.546Z,58.67
2023-01-17T12:32:35.750Z,58.44
2023-01-17T12:33:49.428Z,58.12
2023-01-17T12:34:57.396Z,58.68
2023-01-17T12:36:02.378Z,58.04
2023-01-17T12:37:26.770Z,57.68
2023-01-17T12:38:40.661Z,58.94
2023-01-17T12:39:47.858Z,59.04
2023-01-17T12:41:00.242Z,60.25
2023-01-17T12:42:24.144Z,60.65
2023-01-17T12:43:32.844Z,59.96
2023-01-17T12:44:46.351Z,59.89
2023-01-17T12:45:48.432Z,60.01
2023-01-17T12:47:03.753Z,59.88
2023-01-17T12:48:11.280Z,61.14
2023-01-17T12:49:34.303Z,60.24
2023-01-17T12:50:41.913Z,60.60
2023-01-17T12:51:45.017Z,60.91
2023-01-17T12:53:05.666Z,60.93
2023-01-17T12:54:27.191Z,60.87
2023-01-17T12:56:07.309Z,61.71
2023-01-17T12:57:15.979Z,62.29
2023-01-17T12:58:21.618Z,61.71
2023-01-17T12:59:37.540Z,62.30
2023-01-17T13:00:39.578Z,61.74
2023-01-17T13:01:44.695Z,60.70
2023-01-17T13:03:08.391Z,60.08
2023-01-17T13:04:25.708Z,59.81
2023-01-17T13:05:32.565Z,59.95
2023-01-17T13:06:52.134Z,60.46
2023-01-17T13:08:05.036Z,59.87
2023-01-17T13:09:09.564Z,60.90
2023-01-17T13:10:27.007Z,61.36
2023-01-17T13:11:44.077Z,60.85
2023-01-17T13:12:46.792Z,60.76
2023-01-17T13:13:51.349Z,61.85
2023-01-17T13:14:53.258Z,61.49
2023-01-17T13:16:10.611Z,61.13
2023-01-17T13:17:33.098Z,61.98
2023-01-17T13:18:35.403Z,62.27
2023-01-17T13:19:36.876Z,62.18
2023-01-17T13:20:47.549Z,62.81
2023-01-17T13:21:50.231Z,63.47
2023-01-17T13:22:52.512Z,62.48
2023-01-17T13:24:01.861Z,61.51
2023-01-17T13:25:03.446Z,62.85
2023-01-17T13:26:14.368Z,60.66
2023-01-17T13:27:39.081Z,61.42
2023-01-17T13:29:06.515Z,62.87
2023-01-17T13:30:32.525Z,61.63
2023-01-17T13:31:48.269Z,61.82
2023-01-17T13:33:30.970Z,61.47
2023-01-17T13:34:40.897Z,62.07
2023-01-17T13:35:48.338Z,61.27
2023-01-17T13:37:04.656Z,60.25
2023-01-17T13:38:16.648Z,61.51
2023-01-17T13:39:24.072Z,60.98
2023-01-17T13:40:36.882Z,62.17
2023-01-17T13:41:53.901Z,62.56
2023-01-17T13:43:05.587Z,62.53
2023-01-17T13:44:21.432Z,62.80
2023-01-17T13:45:36.209Z,62.63
2023-01-17T13:47:00.837Z,62.42
2023-01-17T13:48:18.232Z,62.31
2023-01-17T13:49:34.113Z,62.92
2023-01-17T13:50:38.420Z,62.33
2023-01-17T13:52:03.705Z,63.10
2023-01-17T13:53:36.912Z,62.39
2023-01-17T13:54:54.977Z,61.61
2023-01-17T13:56:12.555Z,61.29
2023-01-17T13:57:23.187Z,62.30
2023-01-17T13:58:51.668Z,62.58
2023-01-17T13:59:54.609Z,61.59
2023-01-17T14:00:56.317Z,62.09
2023-01-17T14:01:58.126Z,61.87
2023-01-17T14:02:59.824Z,62.24
2023-01-17T14:04:02.941Z,62.61
2023-01-17T14:05:23.956Z,62.53
2023-01-17T14:06:45.192Z,62.68
2023-01-17T14:07:48.539Z,62.49
2023-01-17T14:08:50.159Z,63.14
2023-01-17T14:09:51.763Z,62.68
2023-01-17T14:10:54.754Z,62.92
2023-01-17T14:12:27.142Z,63.13
2023-01-17T14:13:35.356Z,62.85
2023-01-17T14:14:39.603Z,63.14
2023-01-17T14:15:49.760Z,63.64
2023-01-17T14:16:51.437Z,63.29
2023-01-17T14:17:58.637Z,63.69
2023-01-17T14:19:00.455Z,63.54
2023-01-17T14:20:04.879Z,64.50
2023-01-17T14:21:32.000Z,64.48
2023-01-17T14:22:36.413Z,64.67
2023-01-17T14:23:58.394Z,66.98
2023-01-17T14:25:20.112Z,65.22
2023-01-17T14:26:43.157Z,65.08
2023-01-17T14:27:54.909Z,64.63
2023-01-17T14:28:58.058Z,65.17